Aviation Digital Data Service (ADDS)

Output produced by METARs form (1304 UTC 28 August 2014)
found at http://aviationweather.gov/adds/metars/
 
KRUT 281132Z 2812/2912 VRB03KT P6SM BKN060 
     FM281400 32009KT P6SM BKN050 
     FM281700 32010G20KT P6SM BKN050 
     FM290000 14005KT P6SM SKC AMD LTD TO CLD VIS AND WIND